createdAt,value
2022-09-18T00:01:46.697Z,95532.00
2022-09-18T00:05:50.854Z,95537.00
2022-09-18T00:09:53.577Z,95534.00
2022-09-18T00:13:57.012Z,95542.00
2022-09-18T00:17:59.855Z,95544.00
2022-09-18T00:22:03.938Z,95542.00
2022-09-18T00:26:07.848Z,95549.00
2022-09-18T00:30:11.731Z,95540.00
2022-09-18T00:34:16.645Z,95546.00
2022-09-18T00:38:20.702Z,95541.00
2022-09-18T00:42:23.418Z,95551.00
2022-09-18T00:46:30.317Z,95548.00
2022-09-18T00:50:33.213Z,95546.00
2022-09-18T00:54:39.293Z,95537.00
2022-09-18T00:58:42.718Z,95545.00
2022-09-18T01:02:48.528Z,95543.00
2022-09-18T01:06:55.555Z,95547.00
2022-09-18T01:11:10.367Z,95542.00
2022-09-18T01:15:20.107Z,95546.00
2022-09-18T01:19:38.174Z,95551.00
2022-09-18T01:24:16.998Z,95558.00
2022-09-18T01:28:26.110Z,95557.00
2022-09-18T01:32:32.739Z,95565.00
2022-09-18T01:36:38.994Z,95559.00
2022-09-18T01:40:45.725Z,95560.00
2022-09-18T01:44:54.757Z,95551.00
2022-09-18T01:49:02.638Z,95552.00
2022-09-18T01:53:10.098Z,95544.00
2022-09-18T01:57:18.435Z,95553.00
2022-09-18T02:01:28.802Z,95555.00
2022-09-18T02:05:36.979Z,95545.00
2022-09-18T02:09:40.115Z,95544.00
2022-09-18T02:13:49.223Z,95545.00
2022-09-18T02:17:59.627Z,95527.00
2022-09-18T02:22:17.302Z,95522.00
2022-09-18T02:26:22.412Z,95530.00
2022-09-18T02:30:27.768Z,95526.00
2022-09-18T02:34:32.806Z,95525.00
2022-09-18T02:38:46.023Z,95536.00
2022-09-18T02:42:57.310Z,95525.00
2022-09-18T02:47:12.246Z,95522.00
2022-09-18T02:51:28.502Z,95533.00
2022-09-18T02:55:43.081Z,95529.00
2022-09-18T02:59:48.915Z,95515.00
2022-09-18T03:03:53.753Z,95517.00
2022-09-18T03:08:09.247Z,95513.00
2022-09-18T03:12:16.203Z,95528.00
2022-09-18T03:16:23.754Z,95519.00
2022-09-18T03:20:26.802Z,95530.00
2022-09-18T03:24:31.084Z,95508.00
2022-09-18T03:28:34.563Z,95517.00
2022-09-18T03:32:37.959Z,95519.00
2022-09-18T03:36:43.437Z,95521.00
2022-09-18T03:40:48.095Z,95520.00
2022-09-18T03:44:52.349Z,95524.00
2022-09-18T03:49:02.481Z,95526.00
2022-09-18T03:53:09.390Z,95523.00
2022-09-18T03:57:22.154Z,95523.00
2022-09-18T04:01:47.795Z,95528.00
2022-09-18T04:06:02.884Z,95529.00
2022-09-18T04:10:26.144Z,95532.00
2022-09-18T04:14:30.490Z,95530.00
2022-09-18T04:18:34.711Z,95533.00
2022-09-18T04:22:38.945Z,95525.00
2022-09-18T04:26:43.183Z,95523.00
2022-09-18T04:30:48.654Z,95528.00
2022-09-18T04:34:52.113Z,95529.00
2022-09-18T04:38:56.431Z,95535.00
2022-09-18T04:42:59.227Z,95529.00
2022-09-18T04:47:04.502Z,95525.00
2022-09-18T04:51:07.375Z,95533.00
2022-09-18T04:55:22.246Z,95524.00
2022-09-18T04:59:25.830Z,95537.00
2022-09-18T05:03:34.142Z,95538.00
2022-09-18T05:07:37.013Z,95548.00
2022-09-18T05:11:39.939Z,95540.00
2022-09-18T05:15:43.060Z,95548.00
2022-09-18T05:19:47.361Z,95556.00
2022-09-18T05:23:56.961Z,95554.00
2022-09-18T05:28:01.090Z,95553.00
2022-09-18T05:32:09.169Z,95558.00
2022-09-18T05:36:14.830Z,95554.00
2022-09-18T05:40:17.864Z,95563.00
2022-09-18T05:44:21.173Z,95542.00
2022-09-18T05:48:24.759Z,95550.00
2022-09-18T05:52:28.880Z,95551.00
2022-09-18T05:56:31.637Z,95547.00
2022-09-18T06:00:36.259Z,95557.00
2022-09-18T06:04:45.627Z,95557.00
2022-09-18T06:08:50.838Z,95569.00
2022-09-18T06:13:01.538Z,95565.00
2022-09-18T06:17:04.350Z,95562.00
2022-09-18T06:21:10.078Z,95565.00
2022-09-18T06:25:16.665Z,95571.00
2022-09-18T06:29:19.373Z,95577.00
2022-09-18T06:33:26.786Z,95577.00
2022-09-18T06:37:29.529Z,95577.00
2022-09-18T06:41:46.629Z,95573.00
2022-09-18T06:45:59.554Z,95587.00
2022-09-18T06:50:08.927Z,95587.00
2022-09-18T06:54:12.032Z,95583.00
2022-09-18T06:58:17.351Z,95588.00
2022-09-18T07:02:20.217Z,95598.00
2022-09-18T07:06:30.218Z,95592.00
2022-09-18T07:10:33.197Z,95592.00
2022-09-18T07:14:37.745Z,95591.00
2022-09-18T07:18:49.103Z,95589.00
2022-09-18T07:22:55.269Z,95595.00
2022-09-18T07:27:04.217Z,95589.00
2022-09-18T07:31:08.370Z,95604.00
2022-09-18T07:35:12.622Z,95598.00
2022-09-18T07:39:15.454Z,95609.00
2022-09-18T07:43:50.340Z,95602.00
2022-09-18T07:47:55.279Z,95609.00
2022-09-18T07:51:58.019Z,95611.00
2022-09-18T07:56:00.801Z,95609.00
2022-09-18T08:00:06.559Z,95612.00
2022-09-18T08:04:19.257Z,95617.00
2022-09-18T08:08:42.190Z,95609.00
2022-09-18T08:13:10.906Z,95615.00
2022-09-18T08:17:45.162Z,95620.00
2022-09-18T08:22:12.643Z,95615.00
2022-09-18T08:26:22.497Z,95620.00
2022-09-18T08:30:27.231Z,95615.00
2022-09-18T08:34:32.225Z,95620.00
2022-09-18T08:38:36.971Z,95612.00
2022-09-18T08:43:07.578Z,95620.00
2022-09-18T08:47:16.361Z,95621.00
2022-09-18T08:51:28.277Z,95620.00
2022-09-18T08:55:37.554Z,95610.00
2022-09-18T09:00:01.570Z,95609.00
2022-09-18T09:04:08.389Z,95623.00
2022-09-18T09:08:33.178Z,95620.00
2022-09-18T09:12:45.607Z,95620.00
2022-09-18T09:16:52.559Z,95615.00
2022-09-18T09:20:56.534Z,95618.00
2022-09-18T09:25:06.623Z,95617.00
2022-09-18T09:29:32.819Z,95622.00
2022-09-18T09:33:38.756Z,95623.00
2022-09-18T09:38:02.698Z,95626.00
2022-09-18T09:42:12.242Z,95611.00
2022-09-18T09:46:52.701Z,95608.00
2022-09-18T09:51:05.768Z,95606.00
2022-09-18T09:55:21.506Z,95616.00
2022-09-18T09:59:34.258Z,95627.00
2022-09-18T10:04:02.811Z,95616.00
2022-09-18T10:08:15.429Z,95608.00
2022-09-18T10:12:27.658Z,95611.00
2022-09-18T10:16:37.863Z,95611.00
2022-09-18T10:20:46.591Z,95625.00
2022-09-18T10:24:54.031Z,95618.00
2022-09-18T10:28:56.865Z,95632.00
2022-09-18T10:33:00.302Z,95619.00
2022-09-18T10:37:19.275Z,95621.00
2022-09-18T10:41:34.979Z,95621.00
2022-09-18T10:45:42.031Z,95621.00
2022-09-18T10:50:02.037Z,95616.00
2022-09-18T10:54:17.492Z,95618.00
2022-09-18T10:58:32.099Z,95614.00
2022-09-18T11:02:40.530Z,95621.00
2022-09-18T11:06:46.784Z,95629.00
2022-09-18T11:11:07.251Z,95626.00
2022-09-18T11:15:17.798Z,95623.00
2022-09-18T11:19:28.469Z,95621.00
2022-09-18T11:23:34.717Z,95612.00
2022-09-18T11:27:49.751Z,95614.00
2022-09-18T11:31:56.241Z,95626.00
2022-09-18T11:36:04.389Z,95604.00
2022-09-18T11:40:15.730Z,95605.00
2022-09-18T11:44:25.261Z,95597.00
2022-09-18T11:48:33.413Z,95600.00
2022-09-18T11:52:40.142Z,95591.00
2022-09-18T11:56:47.980Z,95601.00
2022-09-18T12:01:05.273Z,95611.00
2022-09-18T12:05:20.080Z,95624.00
2022-09-18T12:09:32.420Z,95604.00
2022-09-18T12:13:46.925Z,95608.00
2022-09-18T12:17:55.236Z,95605.00
2022-09-18T12:22:03.586Z,95599.00
2022-09-18T12:26:12.918Z,95593.00
2022-09-18T12:30:31.422Z,95605.00
2022-09-18T12:34:43.521Z,95598.00
2022-09-18T12:39:03.082Z,95606.00
2022-09-18T12:43:21.355Z,95597.00
2022-09-18T12:47:37.459Z,95605.00
2022-09-18T12:51:48.110Z,95610.00
2022-09-18T12:56:03.484Z,95588.00
2022-09-18T13:00:11.426Z,95590.00
2022-09-18T13:04:20.274Z,95585.00
2022-09-18T13:08:28.817Z,95575.00
2022-09-18T13:12:37.693Z,95566.00
2022-09-18T13:16:50.181Z,95573.00
2022-09-18T13:20:54.853Z,95573.00
2022-09-18T13:24:59.353Z,95572.00
2022-09-18T13:29:03.057Z,95570.00
2022-09-18T13:33:05.937Z,95557.00
2022-09-18T13:37:16.797Z,95560.00
2022-09-18T13:41:21.297Z,95541.00
2022-09-18T13:45:26.072Z,95531.00
2022-09-18T13:49:31.924Z,95545.00
2022-09-18T13:53:41.651Z,95547.00
2022-09-18T13:57:46.170Z,95547.00
2022-09-18T14:02:02.316Z,95548.00
2022-09-18T14:06:42.486Z,95542.00
2022-09-18T14:11:16.728Z,95531.00
2022-09-18T14:15:24.527Z,95529.00
2022-09-18T14:19:32.065Z,95530.00
2022-09-18T14:24:06.408Z,95524.00
2022-09-18T14:28:09.313Z,95511.00
2022-09-18T14:32:19.745Z,95495.00
2022-09-18T14:36:22.517Z,95511.00
2022-09-18T14:40:27.336Z,95499.00
2022-09-18T14:44:32.397Z,95500.00
2022-09-18T14:48:38.910Z,95489.00
2022-09-18T14:52:42.725Z,95495.00
2022-09-18T14:56:45.485Z,95495.00
2022-09-18T15:00:55.042Z,95499.00
2022-09-18T15:05:00.031Z,95491.00
2022-09-18T15:09:03.386Z,95492.00
2022-09-18T15:13:08.444Z,95486.00
2022-09-18T15:17:19.019Z,95487.00
2022-09-18T15:21:29.852Z,95481.00
2022-09-18T15:25:39.067Z,95478.00
2022-09-18T15:29:46.317Z,95483.00
2022-09-18T15:33:56.089Z,95472.00
2022-09-18T15:38:03.753Z,95464.00
2022-09-18T15:42:20.970Z,95467.00
2022-09-18T15:46:28.760Z,95460.00
2022-09-18T15:50:37.834Z,95472.00
2022-09-18T15:55:04.065Z,95477.00
2022-09-18T15:59:09.025Z,95475.00
2022-09-18T16:03:19.793Z,95451.00
2022-09-18T16:07:25.417Z,95461.00
2022-09-18T16:11:53.504Z,95448.00
2022-09-18T16:16:22.723Z,95445.00
2022-09-18T16:20:31.588Z,95441.00
2022-09-18T16:24:34.335Z,95445.00
2022-09-18T16:28:42.566Z,95440.00
2022-09-18T16:32:45.294Z,95437.00
2022-09-18T16:36:48.234Z,95433.00
2022-09-18T16:40:51.085Z,95431.00
2022-09-18T16:44:55.142Z,95426.00
2022-09-18T16:48:58.195Z,95428.00
2022-09-18T16:53:01.763Z,95433.00
2022-09-18T16:57:07.719Z,95422.00
2022-09-18T17:01:11.812Z,95421.00
2022-09-18T17:05:14.943Z,95418.00
2022-09-18T17:09:17.609Z,95426.00
2022-09-18T17:13:20.319Z,95414.00
2022-09-18T17:17:24.361Z,95418.00
2022-09-18T17:21:27.033Z,95415.00
2022-09-18T17:25:30.417Z,95422.00
2022-09-18T17:29:33.182Z,95417.00
2022-09-18T17:33:37.804Z,95407.00
2022-09-18T17:37:40.953Z,95410.00
2022-09-18T17:41:44.859Z,95408.00
2022-09-18T17:45:47.550Z,95414.00
2022-09-18T17:49:51.747Z,95417.00
2022-09-18T17:53:58.817Z,95424.00
2022-09-18T17:58:01.537Z,95425.00
2022-09-18T18:02:04.413Z,95429.00
2022-09-18T18:06:10.917Z,95429.00
2022-09-18T18:10:13.473Z,95425.00
2022-09-18T18:14:16.170Z,95433.00
2022-09-18T18:18:19.682Z,95427.00
2022-09-18T18:22:23.687Z,95437.00
2022-09-18T18:26:27.861Z,95437.00
2022-09-18T18:30:31.114Z,95445.00
2022-09-18T18:34:33.838Z,95439.00
2022-09-18T18:38:38.053Z,95430.00
2022-09-18T18:42:40.777Z,95445.00
2022-09-18T18:46:44.568Z,95431.00
2022-09-18T18:50:47.337Z,95441.00
2022-09-18T18:54:51.603Z,95436.00
2022-09-18T18:58:57.193Z,95463.00
2022-09-18T19:03:02.290Z,95446.00
2022-09-18T19:07:05.937Z,95435.00
2022-09-18T19:11:09.928Z,95439.00
2022-09-18T19:15:12.601Z,95440.00
2022-09-18T19:19:16.974Z,95437.00
2022-09-18T19:23:20.901Z,95449.00
2022-09-18T19:27:24.938Z,95441.00
2022-09-18T19:31:29.229Z,95444.00
2022-09-18T19:35:35.265Z,95430.00
2022-09-18T19:39:38.065Z,95426.00
2022-09-18T19:43:42.142Z,95431.00
2022-09-18T19:47:48.567Z,95420.00
2022-09-18T19:51:51.250Z,95412.00
2022-09-18T19:55:53.979Z,95414.00
2022-09-18T19:59:59.329Z,95424.00
2022-09-18T20:04:02.194Z,95421.00
2022-09-18T20:08:06.319Z,95408.00
2022-09-18T20:12:09.900Z,95411.00
2022-09-18T20:16:13.963Z,95393.00
2022-09-18T20:20:16.753Z,95393.00
2022-09-18T20:24:20.365Z,95400.00
2022-09-18T20:28:23.037Z,95402.00
2022-09-18T20:32:27.084Z,95400.00
2022-09-18T20:36:32.180Z,95397.00
2022-09-18T20:40:35.452Z,95392.00
2022-09-18T20:44:38.191Z,95387.00
2022-09-18T20:48:45.467Z,95392.00
2022-09-18T20:52:48.816Z,95386.00
2022-09-18T20:56:51.517Z,95378.00
2022-09-18T21:00:55.174Z,95380.00
2022-09-18T21:04:59.366Z,95386.00
2022-09-18T21:09:06.412Z,95389.00
2022-09-18T21:13:13.174Z,95367.00
2022-09-18T21:17:15.877Z,95360.00
2022-09-18T21:21:20.117Z,95356.00
2022-09-18T21:25:24.644Z,95368.00
2022-09-18T21:29:29.786Z,95361.00
2022-09-18T21:33:37.265Z,95360.00
2022-09-18T21:37:41.461Z,95358.00
2022-09-18T21:41:46.315Z,95374.00
2022-09-18T21:45:49.894Z,95369.00
2022-09-18T21:49:52.698Z,95369.00
2022-09-18T21:53:59.001Z,95367.00
2022-09-18T21:58:01.660Z,95377.00
2022-09-18T22:02:04.704Z,95401.00
2022-09-18T22:06:07.606Z,95391.00
2022-09-18T22:10:11.754Z,95396.00
2022-09-18T22:14:16.229Z,95400.00
2022-09-18T22:18:19.117Z,95388.00
2022-09-18T22:22:21.889Z,95372.00
2022-09-18T22:26:28.438Z,95376.00
2022-09-18T22:30:31.770Z,95378.00
2022-09-18T22:34:35.266Z,95386.00
2022-09-18T22:38:37.948Z,95366.00
2022-09-18T22:42:42.025Z,95374.00
2022-09-18T22:46:46.598Z,95364.00
2022-09-18T22:50:49.770Z,95367.00
2022-09-18T22:54:52.417Z,95369.00
2022-09-18T22:58:57.524Z,95358.00
2022-09-18T23:03:00.226Z,95366.00
2022-09-18T23:07:03.334Z,95351.00
2022-09-18T23:11:08.594Z,95344.00
2022-09-18T23:15:12.721Z,95356.00
2022-09-18T23:19:19.074Z,95349.00
2022-09-18T23:23:21.786Z,95356.00
2022-09-18T23:27:24.550Z,95355.00
2022-09-18T23:31:30.308Z,95359.00
2022-09-18T23:35:33.038Z,95368.00
2022-09-18T23:39:35.825Z,95376.00
2022-09-18T23:43:39.587Z,95382.00
2022-09-18T23:47:43.625Z,95392.00
2022-09-18T23:51:47.039Z,95387.00
2022-09-18T23:55:50.128Z,95389.00
2022-09-18T23:59:53.029Z,95386.00
